sensor_id;sensor_type;location;lat;lon;timestamp;P1;durP1;ratioP1;P2;durP2;ratioP2
27187;SDS011;14708;50.872;5.306;2023-12-04T00:01:49;3.00;;;2.45;;
27187;SDS011;14708;50.872;5.306;2023-12-04T00:04:15;2.38;;;2.17;;
27187;SDS011;14708;50.872;5.306;2023-12-04T00:06:41;3.25;;;2.50;;
27187;SDS011;14708;50.872;5.306;2023-12-04T00:09:07;2.60;;;1.88;;
27187;SDS011;14708;50.872;5.306;2023-12-04T00:11:33;3.72;;;2.53;;
27187;SDS011;14708;50.872;5.306;2023-12-04T00:13:59;3.10;;;2.60;;
27187;SDS011;14708;50.872;5.306;2023-12-04T00:16:25;4.13;;;2.40;;
27187;SDS011;14708;50.872;5.306;2023-12-04T00:18:51;3.47;;;2.47;;
27187;SDS011;14708;50.872;5.306;2023-12-04T00:21:16;2.78;;;2.40;;
27187;SDS011;14708;50.872;5.306;2023-12-04T00:23:42;3.50;;;2.45;;
27187;SDS011;14708;50.872;5.306;2023-12-04T00:26:11;2.53;;;2.28;;
27187;SDS011;14708;50.872;5.306;2023-12-04T00:28:38;3.28;;;1.90;;
27187;SDS011;14708;50.872;5.306;2023-12-04T00:31:04;2.40;;;2.20;;
27187;SDS011;14708;50.872;5.306;2023-12-04T00:33:30;3.50;;;2.38;;
27187;SDS011;14708;50.872;5.306;2023-12-04T00:35:56;3.53;;;2.10;;
27187;SDS011;14708;50.872;5.306;2023-12-04T00:38:22;2.97;;;2.45;;
27187;SDS011;14708;50.872;5.306;2023-12-04T00:40:48;3.72;;;2.35;;
27187;SDS011;14708;50.872;5.306;2023-12-04T00:43:13;2.95;;;2.10;;
27187;SDS011;14708;50.872;5.306;2023-12-04T00:45:39;3.75;;;2.53;;
27187;SDS011;14708;50.872;5.306;2023-12-04T00:48:05;3.60;;;2.63;;
27187;SDS011;14708;50.872;5.306;2023-12-04T00:50:31;4.47;;;2.30;;
27187;SDS011;14708;50.872;5.306;2023-12-04T00:52:56;3.10;;;2.30;;
27187;SDS011;14708;50.872;5.306;2023-12-04T00:55:22;3.70;;;2.40;;
27187;SDS011;14708;50.872;5.306;2023-12-04T00:57:47;2.78;;;2.22;;
27187;SDS011;14708;50.872;5.306;2023-12-04T01:00:13;3.53;;;2.45;;
27187;SDS011;14708;50.872;5.306;2023-12-04T01:02:39;2.70;;;2.10;;
27187;SDS011;14708;50.872;5.306;2023-12-04T01:05:05;2.88;;;2.38;;
27187;SDS011;14708;50.872;5.306;2023-12-04T01:07:31;2.55;;;2.20;;
27187;SDS011;14708;50.872;5.306;2023-12-04T01:09:57;2.88;;;2.20;;
27187;SDS011;14708;50.872;5.306;2023-12-04T01:12:22;3.05;;;2.20;;
27187;SDS011;14708;50.872;5.306;2023-12-04T01:14:48;2.92;;;2.30;;
27187;SDS011;14708;50.872;5.306;2023-12-04T01:17:14;2.65;;;2.45;;
27187;SDS011;14708;50.872;5.306;2023-12-04T01:19:40;2.92;;;2.63;;
27187;SDS011;14708;50.872;5.306;2023-12-04T01:22:05;2.38;;;2.15;;
27187;SDS011;14708;50.872;5.306;2023-12-04T01:24:32;2.70;;;2.22;;
27187;SDS011;14708;50.872;5.306;2023-12-04T01:26:57;3.88;;;2.30;;
27187;SDS011;14708;50.872;5.306;2023-12-04T01:29:24;2.35;;;2.13;;
27187;SDS011;14708;50.872;5.306;2023-12-04T01:31:49;2.72;;;2.30;;
27187;SDS011;14708;50.872;5.306;2023-12-04T01:34:15;3.00;;;2.10;;
27187;SDS011;14708;50.872;5.306;2023-12-04T01:36:41;3.05;;;2.33;;
27187;SDS011;14708;50.872;5.306;2023-12-04T01:39:06;2.95;;;2.15;;
27187;SDS011;14708;50.872;5.306;2023-12-04T01:41:32;3.15;;;2.75;;
27187;SDS011;14708;50.872;5.306;2023-12-04T01:43:58;3.03;;;2.38;;
27187;SDS011;14708;50.872;5.306;2023-12-04T01:46:24;2.65;;;2.20;;
27187;SDS011;14708;50.872;5.306;2023-12-04T01:48:50;3.08;;;2.28;;
27187;SDS011;14708;50.872;5.306;2023-12-04T01:51:16;3.25;;;2.35;;
27187;SDS011;14708;50.872;5.306;2023-12-04T01:53:43;2.05;;;1.83;;
27187;SDS011;14708;50.872;5.306;2023-12-04T01:56:09;3.30;;;2.10;;
27187;SDS011;14708;50.872;5.306;2023-12-04T01:58:36;2.83;;;2.47;;
27187;SDS011;14708;50.872;5.306;2023-12-04T02:01:03;2.13;;;1.92;;
27187;SDS011;14708;50.872;5.306;2023-12-04T02:03:30;2.45;;;2.20;;
27187;SDS011;14708;50.872;5.306;2023-12-04T02:05:56;3.03;;;2.10;;
27187;SDS011;14708;50.872;5.306;2023-12-04T02:08:25;4.55;;;2.05;;
27187;SDS011;14708;50.872;5.306;2023-12-04T02:10:51;2.83;;;2.08;;
27187;SDS011;14708;50.872;5.306;2023-12-04T02:13:16;3.15;;;2.10;;
27187;SDS011;14708;50.872;5.306;2023-12-04T02:15:43;3.17;;;1.92;;
27187;SDS011;14708;50.872;5.306;2023-12-04T02:18:11;3.33;;;2.60;;
27187;SDS011;14708;50.872;5.306;2023-12-04T02:20:37;2.67;;;2.30;;
27187;SDS011;14708;50.872;5.306;2023-12-04T02:23:03;2.40;;;2.10;;
27187;SDS011;14708;50.872;5.306;2023-12-04T02:25:29;4.03;;;2.25;;
27187;SDS011;14708;50.872;5.306;2023-12-04T02:27:56;3.35;;;2.40;;
27187;SDS011;14708;50.872;5.306;2023-12-04T02:30:26;3.72;;;2.42;;
27187;SDS011;14708;50.872;5.306;2023-12-04T02:32:55;2.45;;;2.25;;
27187;SDS011;14708;50.872;5.306;2023-12-04T02:35:23;2.80;;;2.05;;
27187;SDS011;14708;50.872;5.306;2023-12-04T02:37:52;2.78;;;2.10;;
27187;SDS011;14708;50.872;5.306;2023-12-04T02:40:19;2.10;;;1.73;;
27187;SDS011;14708;50.872;5.306;2023-12-04T02:42:45;2.00;;;1.80;;
27187;SDS011;14708;50.872;5.306;2023-12-04T02:45:11;2.33;;;2.10;;
27187;SDS011;14708;50.872;5.306;2023-12-04T02:47:36;2.35;;;2.00;;
27187;SDS011;14708;50.872;5.306;2023-12-04T02:50:02;2.50;;;2.08;;
27187;SDS011;14708;50.872;5.306;2023-12-04T02:52:28;2.65;;;1.98;;
27187;SDS011;14708;50.872;5.306;2023-12-04T02:54:54;2.97;;;2.17;;
27187;SDS011;14708;50.872;5.306;2023-12-04T02:57:19;2.17;;;1.90;;
27187;SDS011;14708;50.872;5.306;2023-12-04T02:59:46;3.03;;;2.15;;
27187;SDS011;14708;50.872;5.306;2023-12-04T03:02:12;2.25;;;2.03;;
27187;SDS011;14708;50.872;5.306;2023-12-04T03:04:38;2.20;;;1.95;;
27187;SDS011;14708;50.872;5.306;2023-12-04T03:07:03;2.80;;;2.45;;
27187;SDS011;14708;50.872;5.306;2023-12-04T03:09:29;2.75;;;2.42;;
27187;SDS011;14708;50.872;5.306;2023-12-04T03:11:54;2.25;;;1.83;;
27187;SDS011;14708;50.872;5.306;2023-12-04T03:14:20;2.35;;;1.88;;
27187;SDS011;14708;50.872;5.306;2023-12-04T03:16:46;2.22;;;2.03;;
27187;SDS011;14708;50.872;5.306;2023-12-04T03:19:11;3.15;;;2.22;;
27187;SDS011;14708;50.872;5.306;2023-12-04T03:21:37;2.58;;;2.00;;
27187;SDS011;14708;50.872;5.306;2023-12-04T03:24:05;2.63;;;2.25;;
27187;SDS011;14708;50.872;5.306;2023-12-04T03:26:31;2.35;;;1.95;;
27187;SDS011;14708;50.872;5.306;2023-12-04T03:28:56;2.10;;;1.90;;
27187;SDS011;14708;50.872;5.306;2023-12-04T03:31:22;2.35;;;2.10;;
27187;SDS011;14708;50.872;5.306;2023-12-04T03:33:48;2.63;;;2.10;;
27187;SDS011;14708;50.872;5.306;2023-12-04T03:36:14;2.33;;;2.00;;
27187;SDS011;14708;50.872;5.306;2023-12-04T03:38:40;2.17;;;1.98;;
27187;SDS011;14708;50.872;5.306;2023-12-04T03:41:12;3.22;;;2.30;;
27187;SDS011;14708;50.872;5.306;2023-12-04T03:43:39;2.70;;;2.20;;
27187;SDS011;14708;50.872;5.306;2023-12-04T03:46:05;2.00;;;1.80;;
27187;SDS011;14708;50.872;5.306;2023-12-04T03:48:31;2.35;;;2.00;;
27187;SDS011;14708;50.872;5.306;2023-12-04T03:50:56;2.22;;;1.83;;
27187;SDS011;14708;50.872;5.306;2023-12-04T03:53:22;2.75;;;2.15;;
27187;SDS011;14708;50.872;5.306;2023-12-04T03:55:48;2.00;;;1.80;;
27187;SDS011;14708;50.872;5.306;2023-12-04T03:58:14;3.20;;;2.13;;
27187;SDS011;14708;50.872;5.306;2023-12-04T04:00:40;2.75;;;2.00;;
27187;SDS011;14708;50.872;5.306;2023-12-04T04:03:08;2.67;;;2.10;;
27187;SDS011;14708;50.872;5.306;2023-12-04T04:05:34;2.20;;;2.00;;
27187;SDS011;14708;50.872;5.306;2023-12-04T04:08:00;2.33;;;1.80;;
27187;SDS011;14708;50.872;5.306;2023-12-04T04:10:26;2.33;;;2.13;;
27187;SDS011;14708;50.872;5.306;2023-12-04T04:12:52;2.80;;;1.90;;
27187;SDS011;14708;50.872;5.306;2023-12-04T04:15:17;1.98;;;1.73;;
27187;SDS011;14708;50.872;5.306;2023-12-04T04:17:43;1.90;;;1.58;;
27187;SDS011;14708;50.872;5.306;2023-12-04T04:20:09;2.17;;;1.63;;
27187;SDS011;14708;50.872;5.306;2023-12-04T04:22:36;2.10;;;1.77;;
27187;SDS011;14708;50.872;5.306;2023-12-04T04:25:05;2.72;;;2.42;;
27187;SDS011;14708;50.872;5.306;2023-12-04T04:27:31;2.33;;;2.13;;
27187;SDS011;14708;50.872;5.306;2023-12-04T04:29:57;2.10;;;1.90;;
27187;SDS011;14708;50.872;5.306;2023-12-04T04:32:22;2.40;;;1.80;;
27187;SDS011;14708;50.872;5.306;2023-12-04T04:34:48;1.95;;;1.70;;
27187;SDS011;14708;50.872;5.306;2023-12-04T04:37:14;2.30;;;2.00;;
27187;SDS011;14708;50.872;5.306;2023-12-04T04:39:39;2.05;;;1.77;;
27187;SDS011;14708;50.872;5.306;2023-12-04T04:42:05;2.08;;;1.70;;
27187;SDS011;14708;50.872;5.306;2023-12-04T04:44:31;2.03;;;1.80;;
27187;SDS011;14708;50.872;5.306;2023-12-04T04:46:57;2.10;;;1.90;;
27187;SDS011;14708;50.872;5.306;2023-12-04T04:49:22;2.33;;;1.90;;
27187;SDS011;14708;50.872;5.306;2023-12-04T04:51:48;2.17;;;1.63;;
27187;SDS011;14708;50.872;5.306;2023-12-04T04:54:14;2.55;;;2.00;;
27187;SDS011;14708;50.872;5.306;2023-12-04T04:56:39;2.17;;;1.90;;
27187;SDS011;14708;50.872;5.306;2023-12-04T04:59:05;2.17;;;1.98;;
27187;SDS011;14708;50.872;5.306;2023-12-04T05:01:31;2.25;;;1.73;;
27187;SDS011;14708;50.872;5.306;2023-12-04T05:03:56;2.92;;;1.90;;
27187;SDS011;14708;50.872;5.306;2023-12-04T05:06:22;2.08;;;1.80;;
27187;SDS011;14708;50.872;5.306;2023-12-04T05:08:48;2.22;;;1.58;;
27187;SDS011;14708;50.872;5.306;2023-12-04T05:11:17;2.07;;;1.87;;
27187;SDS011;14708;50.872;5.306;2023-12-04T05:13:44;2.00;;;1.73;;
27187;SDS011;14708;50.872;5.306;2023-12-04T05:16:10;1.98;;;1.80;;
27187;SDS011;14708;50.872;5.306;2023-12-04T05:18:36;2.42;;;2.22;;
27187;SDS011;14708;50.872;5.306;2023-12-04T05:21:03;1.83;;;1.73;;
27187;SDS011;14708;50.872;5.306;2023-12-04T05:23:33;1.63;;;1.48;;
27187;SDS011;14708;50.872;5.306;2023-12-04T05:25:59;2.35;;;2.10;;
27187;SDS011;14708;50.872;5.306;2023-12-04T05:28:25;1.98;;;1.77;;
27187;SDS011;14708;50.872;5.306;2023-12-04T05:30:51;1.70;;;1.60;;
27187;SDS011;14708;50.872;5.306;2023-12-04T05:33:17;2.13;;;1.80;;
27187;SDS011;14708;50.872;5.306;2023-12-04T05:35:42;2.28;;;1.80;;
27187;SDS011;14708;50.872;5.306;2023-12-04T05:38:08;2.13;;;1.83;;
27187;SDS011;14708;50.872;5.306;2023-12-04T05:40:34;1.75;;;1.65;;
27187;SDS011;14708;50.872;5.306;2023-12-04T05:42:59;1.80;;;1.70;;
27187;SDS011;14708;50.872;5.306;2023-12-04T05:45:25;2.28;;;1.88;;
27187;SDS011;14708;50.872;5.306;2023-12-04T05:47:51;2.42;;;1.85;;
27187;SDS011;14708;50.872;5.306;2023-12-04T05:50:17;1.67;;;1.52;;
27187;SDS011;14708;50.872;5.306;2023-12-04T05:52:43;2.00;;;1.80;;
27187;SDS011;14708;50.872;5.306;2023-12-04T05:55:10;1.83;;;1.50;;
27187;SDS011;14708;50.872;5.306;2023-12-04T05:57:36;3.40;;;1.90;;
27187;SDS011;14708;50.872;5.306;2023-12-04T06:00:04;2.35;;;1.63;;
27187;SDS011;14708;50.872;5.306;2023-12-04T06:02:37;1.52;;;1.42;;
27187;SDS011;14708;50.872;5.306;2023-12-04T06:05:03;2.38;;;2.00;;
27187;SDS011;14708;50.872;5.306;2023-12-04T06:07:29;1.73;;;1.50;;
27187;SDS011;14708;50.872;5.306;2023-12-04T06:09:55;1.80;;;1.70;;
27187;SDS011;14708;50.872;5.306;2023-12-04T06:12:21;1.90;;;1.75;;
27187;SDS011;14708;50.872;5.306;2023-12-04T06:14:46;1.63;;;1.42;;
27187;SDS011;14708;50.872;5.306;2023-12-04T06:17:12;2.05;;;1.60;;
27187;SDS011;14708;50.872;5.306;2023-12-04T06:19:38;1.80;;;1.65;;
27187;SDS011;14708;50.872;5.306;2023-12-04T06:22:03;1.50;;;1.40;;
27187;SDS011;14708;50.872;5.306;2023-12-04T06:24:30;2.33;;;1.65;;
27187;SDS011;14708;50.872;5.306;2023-12-04T06:26:56;1.85;;;1.70;;
27187;SDS011;14708;50.872;5.306;2023-12-04T06:29:23;1.60;;;1.50;;
27187;SDS011;14708;50.872;5.306;2023-12-04T06:31:49;1.60;;;1.45;;
27187;SDS011;14708;50.872;5.306;2023-12-04T06:34:16;2.20;;;1.77;;
27187;SDS011;14708;50.872;5.306;2023-12-04T06:36:42;1.95;;;1.50;;
27187;SDS011;14708;50.872;5.306;2023-12-04T06:39:11;1.70;;;1.60;;
27187;SDS011;14708;50.872;5.306;2023-12-04T06:41:38;2.55;;;1.70;;
27187;SDS011;14708;50.872;5.306;2023-12-04T06:44:05;2.13;;;1.70;;
27187;SDS011;14708;50.872;5.306;2023-12-04T06:46:32;2.13;;;1.50;;
27187;SDS011;14708;50.872;5.306;2023-12-04T06:49:02;1.67;;;1.58;;
27187;SDS011;14708;50.872;5.306;2023-12-04T06:51:30;1.70;;;1.60;;
27187;SDS011;14708;50.872;5.306;2023-12-04T06:53:56;2.53;;;1.70;;
27187;SDS011;14708;50.872;5.306;2023-12-04T06:56:21;1.88;;;1.55;;
27187;SDS011;14708;50.872;5.306;2023-12-04T06:58:47;2.00;;;1.40;;
27187;SDS011;14708;50.872;5.306;2023-12-04T07:01:13;2.28;;;1.65;;
27187;SDS011;14708;50.872;5.306;2023-12-04T07:03:41;2.30;;;1.60;;
27187;SDS011;14708;50.872;5.306;2023-12-04T07:06:07;1.48;;;1.38;;
27187;SDS011;14708;50.872;5.306;2023-12-04T07:08:33;1.58;;;1.48;;
27187;SDS011;14708;50.872;5.306;2023-12-04T07:10:59;2.22;;;2.03;;
27187;SDS011;14708;50.872;5.306;2023-12-04T07:13:24;1.50;;;1.40;;
27187;SDS011;14708;50.872;5.306;2023-12-04T07:15:50;2.08;;;1.63;;
27187;SDS011;14708;50.872;5.306;2023-12-04T07:18:16;1.80;;;1.50;;
27187;SDS011;14708;50.872;5.306;2023-12-04T07:20:42;1.42;;;1.33;;
27187;SDS011;14708;50.872;5.306;2023-12-04T07:23:07;1.65;;;1.35;;
27187;SDS011;14708;50.872;5.306;2023-12-04T07:25:33;1.77;;;1.65;;
27187;SDS011;14708;50.872;5.306;2023-12-04T07:27:59;1.52;;;1.42;;
27187;SDS011;14708;50.872;5.306;2023-12-04T07:30:24;1.63;;;1.52;;
27187;SDS011;14708;50.872;5.306;2023-12-04T07:32:51;2.58;;;1.60;;
27187;SDS011;14708;50.872;5.306;2023-12-04T07:35:16;2.35;;;1.55;;
27187;SDS011;14708;50.872;5.306;2023-12-04T07:37:43;4.82;;;2.25;;
27187;SDS011;14708;50.872;5.306;2023-12-04T07:40:09;7.80;;;2.30;;
27187;SDS011;14708;50.872;5.306;2023-12-04T07:42:36;5.57;;;1.50;;
27187;SDS011;14708;50.872;5.306;2023-12-04T07:45:02;3.03;;;1.98;;
27187;SDS011;14708;50.872;5.306;2023-12-04T07:47:28;3.45;;;1.55;;
27187;SDS011;14708;50.872;5.306;2023-12-04T07:49:54;2.35;;;1.92;;
27187;SDS011;14708;50.872;5.306;2023-12-04T07:52:20;4.20;;;1.50;;
27187;SDS011;14708;50.872;5.306;2023-12-04T07:54:46;6.00;;;1.73;;
27187;SDS011;14708;50.872;5.306;2023-12-04T07:57:11;5.38;;;1.52;;
27187;SDS011;14708;50.872;5.306;2023-12-04T07:59:37;1.90;;;1.20;;
27187;SDS011;14708;50.872;5.306;2023-12-04T08:02:04;3.72;;;1.63;;
27187;SDS011;14708;50.872;5.306;2023-12-04T08:04:30;4.70;;;2.35;;
27187;SDS011;14708;50.872;5.306;2023-12-04T08:06:56;3.13;;;1.55;;
27187;SDS011;14708;50.872;5.306;2023-12-04T08:09:22;4.97;;;1.60;;
27187;SDS011;14708;50.872;5.306;2023-12-04T08:11:48;3.05;;;1.45;;
27187;SDS011;14708;50.872;5.306;2023-12-04T08:14:13;2.55;;;1.52;;
27187;SDS011;14708;50.872;5.306;2023-12-04T08:16:41;4.68;;;1.50;;
27187;SDS011;14708;50.872;5.306;2023-12-04T08:19:07;3.13;;;1.50;;
27187;SDS011;14708;50.872;5.306;2023-12-04T08:21:33;3.25;;;2.05;;
27187;SDS011;14708;50.872;5.306;2023-12-04T08:23:58;4.55;;;2.05;;
27187;SDS011;14708;50.872;5.306;2023-12-04T08:26:24;6.32;;;2.17;;
27187;SDS011;14708;50.872;5.306;2023-12-04T08:28:51;7.55;;;2.63;;
27187;SDS011;14708;50.872;5.306;2023-12-04T08:31:17;6.22;;;2.30;;
27187;SDS011;14708;50.872;5.306;2023-12-04T08:33:43;5.18;;;1.88;;
27187;SDS011;14708;50.872;5.306;2023-12-04T08:36:09;8.07;;;1.92;;
27187;SDS011;14708;50.872;5.306;2023-12-04T08:38:36;4.13;;;1.58;;
27187;SDS011;14708;50.872;5.306;2023-12-04T08:41:03;3.55;;;2.00;;
27187;SDS011;14708;50.872;5.306;2023-12-04T08:43:29;3.58;;;1.85;;
27187;SDS011;14708;50.872;5.306;2023-12-04T08:45:55;3.45;;;1.80;;
27187;SDS011;14708;50.872;5.306;2023-12-04T08:48:20;2.40;;;1.40;;
27187;SDS011;14708;50.872;5.306;2023-12-04T08:50:47;3.70;;;1.75;;
27187;SDS011;14708;50.872;5.306;2023-12-04T08:53:13;3.08;;;1.67;;
27187;SDS011;14708;50.872;5.306;2023-12-04T08:55:39;3.05;;;1.75;;
27187;SDS011;14708;50.872;5.306;2023-12-04T08:58:05;6.25;;;2.00;;
27187;SDS011;14708;50.872;5.306;2023-12-04T09:00:33;6.55;;;1.75;;
27187;SDS011;14708;50.872;5.306;2023-12-04T09:03:02;5.40;;;1.90;;
27187;SDS011;14708;50.872;5.306;2023-12-04T09:05:28;5.85;;;2.58;;
27187;SDS011;14708;50.872;5.306;2023-12-04T09:07:53;3.05;;;1.70;;
27187;SDS011;14708;50.872;5.306;2023-12-04T09:10:19;2.85;;;1.48;;
27187;SDS011;14708;50.872;5.306;2023-12-04T09:12:45;4.88;;;2.22;;
27187;SDS011;14708;50.872;5.306;2023-12-04T09:15:11;7.90;;;2.80;;
27187;SDS011;14708;50.872;5.306;2023-12-04T09:17:37;7.20;;;2.47;;
27187;SDS011;14708;50.872;5.306;2023-12-04T09:20:04;6.38;;;2.55;;
27187;SDS011;14708;50.872;5.306;2023-12-04T09:22:30;9.25;;;1.98;;
27187;SDS011;14708;50.872;5.306;2023-12-04T09:25:01;11.98;;;2.42;;
27187;SDS011;14708;50.872;5.306;2023-12-04T09:27:32;6.43;;;2.75;;
27187;SDS011;14708;50.872;5.306;2023-12-04T09:32:39;8.53;;;2.10;;
27187;SDS011;14708;50.872;5.306;2023-12-04T09:35:05;4.82;;;1.52;;
27187;SDS011;14708;50.872;5.306;2023-12-04T09:37:32;4.28;;;1.67;;
27187;SDS011;14708;50.872;5.306;2023-12-04T09:39:57;5.47;;;2.05;;
27187;SDS011;14708;50.872;5.306;2023-12-04T09:42:24;3.83;;;2.00;;
27187;SDS011;14708;50.872;5.306;2023-12-04T09:44:51;2.72;;;1.70;;
27187;SDS011;14708;50.872;5.306;2023-12-04T09:47:19;3.53;;;2.17;;
27187;SDS011;14708;50.872;5.306;2023-12-04T09:49:45;5.63;;;2.03;;
27187;SDS011;14708;50.872;5.306;2023-12-04T09:52:12;3.78;;;1.50;;
27187;SDS011;14708;50.872;5.306;2023-12-04T09:54:38;4.07;;;2.15;;
27187;SDS011;14708;50.872;5.306;2023-12-04T09:57:05;3.70;;;1.85;;
27187;SDS011;14708;50.872;5.306;2023-12-04T09:59:31;6.03;;;2.30;;
27187;SDS011;14708;50.872;5.306;2023-12-04T10:02:00;7.20;;;2.78;;
27187;SDS011;14708;50.872;5.306;2023-12-04T10:04:26;5.05;;;1.90;;
27187;SDS011;14708;50.872;5.306;2023-12-04T10:06:51;3.15;;;1.48;;
27187;SDS011;14708;50.872;5.306;2023-12-04T10:09:18;7.93;;;2.63;;
27187;SDS011;14708;50.872;5.306;2023-12-04T10:11:44;4.78;;;1.80;;
27187;SDS011;14708;50.872;5.306;2023-12-04T10:14:15;7.68;;;2.00;;
27187;SDS011;14708;50.872;5.306;2023-12-04T10:16:44;4.50;;;1.80;;
27187;SDS011;14708;50.872;5.306;2023-12-04T10:19:35;4.28;;;1.70;;
27187;SDS011;14708;50.872;5.306;2023-12-04T10:24:34;5.28;;;1.77;;
27187;SDS011;14708;50.872;5.306;2023-12-04T10:27:01;6.13;;;1.55;;
27187;SDS011;14708;50.872;5.306;2023-12-04T10:32:07;6.75;;;3.00;;
27187;SDS011;14708;50.872;5.306;2023-12-04T10:34:36;7.35;;;2.78;;
27187;SDS011;14708;50.872;5.306;2023-12-04T10:37:04;4.40;;;2.80;;
27187;SDS011;14708;50.872;5.306;2023-12-04T10:39:54;4.80;;;2.70;;
27187;SDS011;14708;50.872;5.306;2023-12-04T10:42:25;6.78;;;2.70;;
27187;SDS011;14708;50.872;5.306;2023-12-04T10:44:58;4.13;;;2.50;;
27187;SDS011;14708;50.872;5.306;2023-12-04T10:47:24;4.18;;;2.20;;
27187;SDS011;14708;50.872;5.306;2023-12-04T10:49:50;5.35;;;2.72;;
27187;SDS011;14708;50.872;5.306;2023-12-04T10:52:17;4.43;;;2.20;;
27187;SDS011;14708;50.872;5.306;2023-12-04T10:57:12;8.57;;;2.63;;
27187;SDS011;14708;50.872;5.306;2023-12-04T10:59:48;22.17;;;2.88;;
27187;SDS011;14708;50.872;5.306;2023-12-04T11:02:21;4.63;;;2.30;;
27187;SDS011;14708;50.872;5.306;2023-12-04T11:04:52;3.80;;;1.90;;
27187;SDS011;14708;50.872;5.306;2023-12-04T11:07:24;7.57;;;2.80;;
27187;SDS011;14708;50.872;5.306;2023-12-04T11:09:52;4.45;;;2.10;;
27187;SDS011;14708;50.872;5.306;2023-12-04T11:12:18;4.28;;;2.20;;
27187;SDS011;14708;50.872;5.306;2023-12-04T11:14:52;3.90;;;2.42;;
27187;SDS011;14708;50.872;5.306;2023-12-04T11:17:22;6.43;;;2.50;;
27187;SDS011;14708;50.872;5.306;2023-12-04T11:19:52;5.32;;;2.53;;
27187;SDS011;14708;50.872;5.306;2023-12-04T11:22:23;3.70;;;2.08;;
27187;SDS011;14708;50.872;5.306;2023-12-04T11:24:50;4.07;;;1.90;;
27187;SDS011;14708;50.872;5.306;2023-12-04T11:27:19;4.28;;;1.90;;
27187;SDS011;14708;50.872;5.306;2023-12-04T11:29:46;3.15;;;1.85;;
27187;SDS011;14708;50.872;5.306;2023-12-04T11:32:16;3.75;;;2.15;;
27187;SDS011;14708;50.872;5.306;2023-12-04T11:34:54;4.20;;;2.00;;
27187;SDS011;14708;50.872;5.306;2023-12-04T11:37:21;12.90;;;3.25;;
27187;SDS011;14708;50.872;5.306;2023-12-04T11:39:49;15.48;;;3.45;;
27187;SDS011;14708;50.872;5.306;2023-12-04T11:42:22;12.50;;;3.50;;
27187;SDS011;14708;50.872;5.306;2023-12-04T11:44:49;8.23;;;2.97;;
27187;SDS011;14708;50.872;5.306;2023-12-04T11:47:20;12.40;;;2.80;;
27187;SDS011;14708;50.872;5.306;2023-12-04T11:49:46;7.50;;;2.83;;
27187;SDS011;14708;50.872;5.306;2023-12-04T11:52:12;6.32;;;2.92;;
27187;SDS011;14708;50.872;5.306;2023-12-04T11:54:57;13.75;;;3.30;;
27187;SDS011;14708;50.872;5.306;2023-12-04T11:57:36;14.20;;;4.05;;
27187;SDS011;14708;50.872;5.306;2023-12-04T12:03:08;9.38;;;2.97;;
27187;SDS011;14708;50.872;5.306;2023-12-04T12:05:35;8.40;;;2.95;;
27187;SDS011;14708;50.872;5.306;2023-12-04T12:08:04;8.15;;;2.97;;
27187;SDS011;14708;50.872;5.306;2023-12-04T12:10:31;8.85;;;2.88;;
27187;SDS011;14708;50.872;5.306;2023-12-04T12:12:57;9.07;;;3.72;;
27187;SDS011;14708;50.872;5.306;2023-12-04T12:15:23;7.93;;;2.85;;
27187;SDS011;14708;50.872;5.306;2023-12-04T12:17:49;10.65;;;3.20;;
27187;SDS011;14708;50.872;5.306;2023-12-04T12:20:16;11.85;;;3.20;;
27187;SDS011;14708;50.872;5.306;2023-12-04T12:22:42;11.77;;;3.80;;
27187;SDS011;14708;50.872;5.306;2023-12-04T12:25:11;8.25;;;3.58;;
27187;SDS011;14708;50.872;5.306;2023-12-04T12:27:40;9.48;;;3.53;;
27187;SDS011;14708;50.872;5.306;2023-12-04T12:30:06;8.85;;;3.55;;
27187;SDS011;14708;50.872;5.306;2023-12-04T12:32:33;9.65;;;3.30;;
27187;SDS011;14708;50.872;5.306;2023-12-04T12:34:59;9.05;;;3.42;;
27187;SDS011;14708;50.872;5.306;2023-12-04T12:37:25;7.13;;;3.00;;
27187;SDS011;14708;50.872;5.306;2023-12-04T12:39:53;6.38;;;3.05;;
27187;SDS011;14708;50.872;5.306;2023-12-04T12:42:23;7.97;;;2.95;;
27187;SDS011;14708;50.872;5.306;2023-12-04T12:44:53;10.77;;;3.53;;
27187;SDS011;14708;50.872;5.306;2023-12-04T12:47:21;6.75;;;3.17;;
27187;SDS011;14708;50.872;5.306;2023-12-04T12:49:47;7.45;;;3.22;;
27187;SDS011;14708;50.872;5.306;2023-12-04T12:52:14;5.68;;;3.20;;
27187;SDS011;14708;50.872;5.306;2023-12-04T12:54:40;10.90;;;3.38;;
27187;SDS011;14708;50.872;5.306;2023-12-04T12:57:07;6.40;;;2.95;;
27187;SDS011;14708;50.872;5.306;2023-12-04T12:59:33;8.40;;;3.33;;
27187;SDS011;14708;50.872;5.306;2023-12-04T13:01:59;5.78;;;2.38;;
27187;SDS011;14708;50.872;5.306;2023-12-04T13:04:26;6.47;;;2.78;;
27187;SDS011;14708;50.872;5.306;2023-12-04T13:06:58;9.23;;;3.00;;
27187;SDS011;14708;50.872;5.306;2023-12-04T13:09:24;9.23;;;3.55;;
27187;SDS011;14708;50.872;5.306;2023-12-04T13:11:50;7.88;;;3.35;;
27187;SDS011;14708;50.872;5.306;2023-12-04T13:14:16;7.78;;;2.72;;
27187;SDS011;14708;50.872;5.306;2023-12-04T13:16:42;7.35;;;3.13;;
27187;SDS011;14708;50.872;5.306;2023-12-04T13:19:08;8.07;;;2.80;;
27187;SDS011;14708;50.872;5.306;2023-12-04T13:21:34;9.70;;;3.10;;
27187;SDS011;14708;50.872;5.306;2023-12-04T13:23:59;6.72;;;2.95;;
27187;SDS011;14708;50.872;5.306;2023-12-04T13:26:25;10.18;;;3.05;;
27187;SDS011;14708;50.872;5.306;2023-12-04T13:28:51;7.07;;;2.97;;
27187;SDS011;14708;50.872;5.306;2023-12-04T13:31:16;4.65;;;2.63;;
27187;SDS011;14708;50.872;5.306;2023-12-04T13:33:42;6.53;;;2.75;;
27187;SDS011;14708;50.872;5.306;2023-12-04T13:36:08;6.25;;;2.72;;
27187;SDS011;14708;50.872;5.306;2023-12-04T13:38:34;8.75;;;3.08;;
27187;SDS011;14708;50.872;5.306;2023-12-04T13:41:00;5.63;;;2.88;;
27187;SDS011;14708;50.872;5.306;2023-12-04T13:43:43;7.78;;;2.92;;
27187;SDS011;14708;50.872;5.306;2023-12-04T13:46:15;7.68;;;3.05;;
27187;SDS011;14708;50.872;5.306;2023-12-04T13:48:41;8.00;;;2.80;;
27187;SDS011;14708;50.872;5.306;2023-12-04T13:51:10;6.90;;;3.03;;
27187;SDS011;14708;50.872;5.306;2023-12-04T13:53:36;7.43;;;2.70;;
27187;SDS011;14708;50.872;5.306;2023-12-04T13:56:12;6.07;;;3.20;;
27187;SDS011;14708;50.872;5.306;2023-12-04T13:58:38;6.00;;;3.05;;
27187;SDS011;14708;50.872;5.306;2023-12-04T14:01:08;6.57;;;2.83;;
27187;SDS011;14708;50.872;5.306;2023-12-04T14:03:47;6.25;;;3.10;;
27187;SDS011;14708;50.872;5.306;2023-12-04T14:06:13;6.72;;;3.17;;
27187;SDS011;14708;50.872;5.306;2023-12-04T14:08:40;5.95;;;2.58;;
27187;SDS011;14708;50.872;5.306;2023-12-04T14:11:06;6.35;;;2.97;;
27187;SDS011;14708;50.872;5.306;2023-12-04T14:13:32;7.53;;;3.00;;
27187;SDS011;14708;50.872;5.306;2023-12-04T14:15:58;5.35;;;2.70;;
27187;SDS011;14708;50.872;5.306;2023-12-04T14:18:24;6.25;;;3.05;;
27187;SDS011;14708;50.872;5.306;2023-12-04T14:20:51;9.68;;;3.22;;
27187;SDS011;14708;50.872;5.306;2023-12-04T14:23:17;5.90;;;1.92;;
27187;SDS011;14708;50.872;5.306;2023-12-04T14:25:44;6.63;;;2.38;;
27187;SDS011;14708;50.872;5.306;2023-12-04T14:28:10;6.53;;;2.78;;
27187;SDS011;14708;50.872;5.306;2023-12-04T14:30:36;6.43;;;2.80;;
27187;SDS011;14708;50.872;5.306;2023-12-04T14:33:02;4.80;;;2.33;;
27187;SDS011;14708;50.872;5.306;2023-12-04T14:35:28;8.35;;;3.53;;
27187;SDS011;14708;50.872;5.306;2023-12-04T14:37:54;5.80;;;2.83;;
27187;SDS011;14708;50.872;5.306;2023-12-04T14:40:20;5.43;;;2.63;;
27187;SDS011;14708;50.872;5.306;2023-12-04T14:42:48;4.07;;;2.45;;
27187;SDS011;14708;50.872;5.306;2023-12-04T14:45:13;4.18;;;2.42;;
27187;SDS011;14708;50.872;5.306;2023-12-04T14:47:41;7.53;;;3.42;;
27187;SDS011;14708;50.872;5.306;2023-12-04T14:50:07;8.13;;;2.58;;
27187;SDS011;14708;50.872;5.306;2023-12-04T14:52:35;7.60;;;2.67;;
27187;SDS011;14708;50.872;5.306;2023-12-04T14:55:08;5.82;;;2.42;;
27187;SDS011;14708;50.872;5.306;2023-12-04T14:57:34;4.47;;;2.47;;
27187;SDS011;14708;50.872;5.306;2023-12-04T15:02:58;5.05;;;2.40;;